Time;durP1;ratioP1;P1;durP2;ratioP2;P2;SDS_P1;SDS_P2;PMS_P1;PMS_P2;Temp;Humidity;BMP_temperature;BMP_pressure;BME280_temperature;BME280_humidity;BME280_pressure;Samples;Min_cycle;Max_cycle;Signal;HPM_P1;HPM_P2
2020/12/01 00:00:22;;;;;;;23.55;12.13;;;;;;;;;;3591667;32;20184;-81
2020/12/01 00:02:59;;;;;;;20.50;11.38;;;;;;;;;;3583315;39;20103;-80
2020/12/01 00:06:04;;;;;;;23.65;12.35;;;;;;;;;;3598471;32;20117;-82
2020/12/01 00:08:49;;;;;;;26.73;12.32;;;;;;;;;;3585310;32;20116;-82
2020/12/01 00:11:20;;;;;;;25.20;12.27;;;;;;;;;;3598482;32;20113;-83
2020/12/01 00:13:55;;;;;;;23.48;11.88;;;;;;;;;;3596513;32;20219;-79
2020/12/01 00:16:32;;;;;;;25.20;12.60;;;;;;;;;;3607137;39;20110;-81
2020/12/01 00:19:02;;;;;;;24.83;12.18;;;;;;;;;;3601856;32;20126;-81
2020/12/01 00:21:41;;;;;;;22.73;12.43;;;;;;;;;;3599611;39;20157;-82
2020/12/01 00:24:23;;;;;;;25.23;13.60;;;;;;;;;;3608726;32;20552;-81
2020/12/01 00:27:13;;;;;;;28.38;13.50;;;;;;;;;;3601589;39;20111;-82
2020/12/01 00:29:51;;;;;;;27.48;13.07;;;;;;;;;;3591756;39;20121;-81
2020/12/01 00:32:36;;;;;;;28.92;14.10;;;;;;;;;;3605742;32;20118;-82
2020/12/01 00:35:18;;;;;;;27.88;13.82;;;;;;;;;;3601379;39;20188;-82
2020/12/01 00:38:10;;;;;;;30.35;15.05;;;;;;;;;;3600251;39;20330;-81
2020/12/01 00:40:48;;;;;;;29.98;15.20;;;;;;;;;;3602864;39;20215;-83
2020/12/01 00:43:21;;;;;;;31.55;16.48;;;;;;;;;;3604240;32;20200;-80
2020/12/01 00:45:58;;;;;;;31.95;15.68;;;;;;;;;;3608513;32;20536;-81
2020/12/01 00:48:52;;;;;;;34.23;17.80;;;;;;;;;;3603256;39;20111;-83
2020/12/01 00:51:24;;;;;;;36.75;15.38;;;;;;;;;;3585590;39;20179;-82
2020/12/01 00:54:12;;;;;;;34.38;16.05;;;;;;;;;;3603881;39;20121;-83
2020/12/01 00:56:46;;;;;;;;;;;;;;;;;;3596815;32;20331;-83
2020/12/01 00:59:17;;;;;;;30.77;15.32;;;;;;;;;;3603447;39;20295;-81
2020/12/01 01:01:47;;;;;;;34.78;16.90;;;;;;;;;;3602610;32;20133;-83
2020/12/01 01:04:21;;;;;;;35.92;18.02;;;;;;;;;;3597075;32;20133;-84
2020/12/01 01:06:50;;;;;;;37.75;17.88;;;;;;;;;;3601881;39;20147;-83
2020/12/01 01:09:17;;;;;;;39.72;18.88;;;;;;;;;;3597843;32;20589;-82
2020/12/01 01:11:49;;;;;;;35.92;18.15;;;;;;;;;;3609156;32;20099;-82
2020/12/01 01:14:37;;;;;;;39.28;18.70;;;;;;;;;;3607033;32;20183;-83
2020/12/01 01:17:23;;;;;;;40.10;18.85;;;;;;;;;;3601762;39;20106;-82
2020/12/01 01:19:53;;;;;;;36.88;18.40;;;;;;;;;;3602917;32;20121;-83
2020/12/01 01:22:35;;;;;;;37.22;18.40;;;;;;;;;;3601495;39;20133;-83
2020/12/01 01:25:26;;;;;;;35.80;17.92;;;;;;;;;;3612804;39;20129;-83
2020/12/01 01:28:23;;;;;;;36.00;17.63;;;;;;;;;;3602900;39;20596;-84
2020/12/01 01:31:05;;;;;;;33.97;17.73;;;;;;;;;;3611970;39;20105;-84
2020/12/01 01:33:41;;;;;;;36.38;17.92;;;;;;;;;;3613183;39;20128;-84
2020/12/01 01:36:19;;;;;;;35.63;17.88;;;;;;;;;;3604853;32;20474;-83
2020/12/01 01:39:11;;;;;;;;;;;;;;;;;;3613338;39;20163;-85
2020/12/01 01:41:45;;;;;;;33.92;17.52;;;;;;;;;;3612780;39;20002;-83
2020/12/01 01:46:52;;;;;;;30.92;16.40;;;;;;;;;;3613130;32;20336;-79
2020/12/01 01:49:20;;;;;;;33.63;16.63;;;;;;;;;;3605952;32;20110;-80
2020/12/01 01:51:52;;;;;;;32.97;16.48;;;;;;;;;;3613294;32;20114;-80
2020/12/01 01:54:24;;;;;;;35.13;15.95;;;;;;;;;;3604029;39;20114;-78
2020/12/01 01:56:57;;;;;;;32.95;16.50;;;;;;;;;;3595484;39;20565;-78
2020/12/01 01:59:30;;;;;;;25.73;12.52;;;;;;;;;;3597532;39;20516;-79
2020/12/01 02:01:57;;;;;;;31.13;15.90;;;;;;;;;;3610211;32;20143;-77
2020/12/01 02:04:26;;;;;;;28.73;15.52;;;;;;;;;;3606114;32;20149;-78
2020/12/01 02:06:59;;;;;;;33.75;16.13;;;;;;;;;;3607782;32;20130;-80
2020/12/01 02:09:31;;;;;;;31.52;15.95;;;;;;;;;;3616739;32;20118;-80
2020/12/01 02:12:03;;;;;;;27.83;15.45;;;;;;;;;;3617059;32;20135;-78
2020/12/01 02:14:34;;;;;;;31.23;15.20;;;;;;;;;;3603636;39;20106;-78
2020/12/01 02:17:24;;;;;;;32.22;15.98;;;;;;;;;;3612323;39;20151;-78
2020/12/01 02:19:53;;;;;;;31.48;15.88;;;;;;;;;;3617480;32;20170;-81
2020/12/01 02:22:21;;;;;;;33.88;15.65;;;;;;;;;;3603426;32;20653;-77
2020/12/01 02:24:48;;;;;;;31.77;15.88;;;;;;;;;;3607289;32;20152;-79
2020/12/01 02:27:16;;;;;;;30.73;16.30;;;;;;;;;;3601911;32;20578;-79
2020/12/01 02:29:45;;;;;;;32.80;15.75;;;;;;;;;;3608310;32;20125;-78
2020/12/01 02:32:15;;;;;;;33.17;16.27;;;;;;;;;;3612991;39;20114;-78
2020/12/01 02:34:44;;;;;;;33.75;16.08;;;;;;;;;;3603229;39;20181;-78
2020/12/01 02:37:12;;;;;;;36.60;16.23;;;;;;;;;;3607304;32;20114;-78
2020/12/01 02:39:39;;;;;;;31.35;16.30;;;;;;;;;;3604010;39;20114;-78
2020/12/01 02:42:12;;;;;;;31.38;16.48;;;;;;;;;;3598410;32;20126;-79
2020/12/01 02:44:38;;;;;;;32.45;16.48;;;;;;;;;;3596351;32;20132;-79
2020/12/01 02:47:05;;;;;;;31.77;16.05;;;;;;;;;;3586813;39;20134;-80
2020/12/01 02:49:32;;;;;;;32.80;16.40;;;;;;;;;;3606057;32;20204;-78
2020/12/01 02:51:59;;;;;;;28.60;15.75;;;;;;;;;;3594238;32;20624;-79
2020/12/01 02:54:26;;;;;;;35.83;17.50;;;;;;;;;;3604704;32;20950;-78
2020/12/01 02:56:52;;;;;;;33.35;16.63;;;;;;;;;;3611154;32;20094;-77
2020/12/01 02:59:20;;;;;;;33.60;17.00;;;;;;;;;;3605878;32;20175;-78
2020/12/01 03:01:47;;;;;;;29.02;15.25;;;;;;;;;;3601237;32;20128;-78
2020/12/01 03:04:14;;;;;;;35.92;17.20;;;;;;;;;;3612572;32;20661;-79
2020/12/01 03:06:41;;;;;;;36.58;16.17;;;;;;;;;;3602823;32;20142;-79
2020/12/01 03:09:10;;;;;;;30.67;15.80;;;;;;;;;;3602157;39;20182;-79
2020/12/01 03:11:37;;;;;;;33.40;15.77;;;;;;;;;;3611872;32;20193;-78
2020/12/01 03:14:06;;;;;;;32.00;15.93;;;;;;;;;;3601552;32;20121;-78
2020/12/01 03:16:32;;;;;;;30.73;16.48;;;;;;;;;;3594179;32;20187;-79
2020/12/01 03:19:01;;;;;;;31.70;15.98;;;;;;;;;;3594092;32;20585;-78
2020/12/01 03:21:28;;;;;;;32.65;15.65;;;;;;;;;;3606312;32;20125;-80
2020/12/01 03:23:57;;;;;;;30.08;16.17;;;;;;;;;;3615998;39;20114;-79
2020/12/01 03:26:24;;;;;;;29.15;15.70;;;;;;;;;;3619252;32;20686;-80
2020/12/01 03:28:51;;;;;;;31.42;16.17;;;;;;;;;;3606070;32;20199;-78
2020/12/01 03:31:22;;;;;;;29.05;15.70;;;;;;;;;;3604520;32;20102;-79
2020/12/01 03:33:48;;;;;;;29.85;15.15;;;;;;;;;;3601717;32;20114;-79
2020/12/01 03:36:16;;;;;;;27.73;14.75;;;;;;;;;;3605136;32;20114;-80
2020/12/01 03:38:46;;;;;;;30.55;15.63;;;;;;;;;;3613535;32;20138;-78
2020/12/01 03:41:18;;;;;;;29.45;14.63;;;;;;;;;;3604973;32;20510;-79
2020/12/01 03:43:50;;;;;;;28.38;14.65;;;;;;;;;;3602020;39;20114;-79
2020/12/01 03:46:19;;;;;;;26.50;13.68;;;;;;;;;;3604772;32;20117;-80
2020/12/01 03:48:46;;;;;;;29.13;14.90;;;;;;;;;;3592134;39;20122;-80
2020/12/01 03:51:14;;;;;;;28.83;15.45;;;;;;;;;;3603281;39;20102;-80
2020/12/01 03:53:44;;;;;;;28.20;15.32;;;;;;;;;;3602886;32;20118;-77
2020/12/01 03:56:10;;;;;;;27.50;13.57;;;;;;;;;;3574359;39;20118;-78
2020/12/01 03:58:36;;;;;;;28.25;13.75;;;;;;;;;;3586827;32;20126;-78
2020/12/01 04:01:03;;;;;;;26.50;13.02;;;;;;;;;;3593402;32;20518;-80
2020/12/01 04:03:30;;;;;;;25.67;12.85;;;;;;;;;;3590794;39;20131;-78
2020/12/01 04:05:58;;;;;;;28.58;13.57;;;;;;;;;;3591365;32;20122;-79
2020/12/01 04:08:26;;;;;;;27.10;12.73;;;;;;;;;;3600919;39;20122;-78
2020/12/01 04:10:54;;;;;;;29.10;12.85;;;;;;;;;;3591976;32;20156;-78
2020/12/01 04:13:20;;;;;;;27.70;13.77;;;;;;;;;;3594569;32;20183;-77
2020/12/01 04:15:47;;;;;;;30.48;13.80;;;;;;;;;;3606783;32;20593;-81
2020/12/01 04:18:14;;;;;;;29.10;14.27;;;;;;;;;;3602532;39;20196;-78
2020/12/01 04:20:48;;;;;;;27.70;14.32;;;;;;;;;;3593715;39;20125;-79
2020/12/01 04:23:17;;;;;;;28.27;14.23;;;;;;;;;;3593326;39;20114;-80
2020/12/01 04:25:44;;;;;;;30.85;15.00;;;;;;;;;;3585669;39;20118;-81
2020/12/01 04:28:11;;;;;;;34.63;14.32;;;;;;;;;;3592887;32;20137;-79
2020/12/01 04:30:41;;;;;;;32.83;13.93;;;;;;;;;;3606370;32;20107;-80
2020/12/01 04:33:10;;;;;;;27.52;14.13;;;;;;;;;;3601856;39;20122;-79
2020/12/01 04:35:39;;;;;;;27.00;13.57;;;;;;;;;;3594853;32;20106;-78
2020/12/01 04:38:09;;;;;;;27.92;13.45;;;;;;;;;;3600134;32;20432;-79
2020/12/01 04:40:37;;;;;;;32.60;14.88;;;;;;;;;;3604064;32;20604;-80
2020/12/01 04:43:25;;;;;;;28.60;14.82;;;;;;;;;;3594610;39;20200;-80
2020/12/01 04:45:52;;;;;;;35.88;15.02;;;;;;;;;;3595324;32;20106;-79
2020/12/01 04:48:40;;;;;;;30.75;15.05;;;;;;;;;;3599393;32;20425;-82
2020/12/01 04:51:32;;;;;;;33.25;15.80;;;;;;;;;;3604107;39;20122;-80
2020/12/01 04:54:21;;;;;;;31.05;15.18;;;;;;;;;;3586298;39;20114;-79
2020/12/01 04:56:54;;;;;;;33.33;15.25;;;;;;;;;;3596337;32;20114;-82
2020/12/01 04:59:21;;;;;;;28.85;15.32;;;;;;;;;;3592565;39;20646;-79
2020/12/01 05:02:11;;;;;;;35.47;15.80;;;;;;;;;;3601845;32;20121;-81
2020/12/01 05:04:47;;;;;;;29.67;15.13;;;;;;;;;;3603792;39;20120;-81
2020/12/01 05:07:36;;;;;;;31.35;15.18;;;;;;;;;;3604663;39;20199;-80
2020/12/01 05:10:08;;;;;;;33.90;15.05;;;;;;;;;;3610186;32;20638;-82
2020/12/01 05:12:41;;;;;;;28.67;14.52;;;;;;;;;;3614163;39;20110;-80
2020/12/01 05:15:21;;;;;;;27.65;15.00;;;;;;;;;;3604041;39;20118;-80
2020/12/01 05:18:06;;;;;;;31.02;14.88;;;;;;;;;;3613136;39;20113;-79
2020/12/01 05:20:41;;;;;;;29.42;14.88;;;;;;;;;;3613919;39;20175;-80
2020/12/01 05:23:09;;;;;;;27.10;13.73;;;;;;;;;;3614829;32;20116;-81
2020/12/01 05:25:35;;;;;;;27.77;14.48;;;;;;;;;;3612109;39;20121;-78
2020/12/01 05:28:08;;;;;;;25.65;14.18;;;;;;;;;;3603091;39;20125;-78
2020/12/01 05:30:41;;;;;;;24.98;13.80;;;;;;;;;;3605748;32;20512;-80
2020/12/01 05:33:22;;;;;;;30.02;14.95;;;;;;;;;;3604118;39;20395;-79
2020/12/01 05:36:15;;;;;;;28.05;14.68;;;;;;;;;;3604369;32;20133;-79
2020/12/01 05:39:05;;;;;;;32.53;14.32;;;;;;;;;;3594065;39;20701;-80
2020/12/01 05:41:36;;;;;;;27.85;14.60;;;;;;;;;;3604721;32;20206;-79
2020/12/01 05:44:20;;;;;;;32.25;14.07;;;;;;;;;;3592654;32;20110;-81
2020/12/01 05:47:05;;;;;;;26.50;14.50;;;;;;;;;;3601840;39;20470;-79
2020/12/01 05:49:46;;;;;;;30.38;14.48;;;;;;;;;;3601512;32;20126;-78
2020/12/01 05:52:19;;;;;;;25.88;14.15;;;;;;;;;;3591702;32;20118;-78
2020/12/01 05:55:02;;;;;;;28.23;14.48;;;;;;;;;;3586310;32;20103;-79
2020/12/01 05:57:31;;;;;;;28.30;14.15;;;;;;;;;;3597973;32;20631;-80
2020/12/01 06:00:01;;;;;;;26.35;14.13;;;;;;;;;;3600530;32;20118;-79
2020/12/01 06:02:48;;;;;;;27.98;14.52;;;;;;;;;;3604845;32;20139;-80
2020/12/01 06:05:19;;;;;;;25.45;14.35;;;;;;;;;;3605920;32;20138;-79
2020/12/01 06:07:49;;;;;;;27.10;14.45;;;;;;;;;;3597834;32;20561;-78
2020/12/01 06:10:17;;;;;;;27.80;14.07;;;;;;;;;;3607274;39;20137;-82
2020/12/01 06:12:52;;;;;;;27.33;14.25;;;;;;;;;;3600303;32;20704;-80
2020/12/01 06:15:25;;;;;;;29.33;13.55;;;;;;;;;;3605331;39;20564;-78
2020/12/01 06:18:05;;;;;;;25.92;14.23;;;;;;;;;;3601408;39;20552;-80
2020/12/01 06:20:57;;;;;;;24.88;14.40;;;;;;;;;;3603476;39;20262;-80
2020/12/01 06:23:42;;;;;;;27.52;14.65;;;;;;;;;;3602836;32;20677;-79
2020/12/01 06:26:12;;;;;;;27.52;15.00;;;;;;;;;;3605547;32;20587;-79
2020/12/01 06:28:52;;;;;;;26.67;14.18;;;;;;;;;;3601437;32;20128;-79
2020/12/01 06:31:39;;;;;;;27.42;14.63;;;;;;;;;;3606894;32;20122;-80
2020/12/01 06:34:26;;;;;;;28.42;14.77;;;;;;;;;;3602798;32;20151;-79
2020/12/01 06:37:06;;;;;;;29.13;15.20;;;;;;;;;;3604774;32;20130;-80
2020/12/01 06:39:37;;;;;;;29.95;15.65;;;;;;;;;;3601578;39;20118;-81
2020/12/01 06:42:25;;;;;;;31.63;16.08;;;;;;;;;;3603669;32;20113;-78
2020/12/01 06:45:03;;;;;;;29.95;15.98;;;;;;;;;;3594029;32;20113;-78
2020/12/01 06:47:31;;;;;;;29.40;16.17;;;;;;;;;;3592534;32;20106;-79
2020/12/01 06:50:15;;;;;;;30.20;15.77;;;;;;;;;;3608092;32;20133;-79
2020/12/01 06:52:41;;;;;;;29.75;16.08;;;;;;;;;;3600951;32;20106;-79
2020/12/01 06:55:30;;;;;;;28.75;15.48;;;;;;;;;;3585681;39;20168;-81
2020/12/01 06:58:17;;;;;;;30.50;16.42;;;;;;;;;;3598133;32;20325;-80
2020/12/01 07:01:17;;;;;;;31.73;16.13;;;;;;;;;;3612137;39;20213;-80
2020/12/01 07:04:17;;;;;;;28.85;15.25;;;;;;;;;;3612472;32;20235;-80
2020/12/01 07:06:48;;;;;;;30.85;16.55;;;;;;;;;;3602500;39;20199;-80
2020/12/01 07:09:16;;;;;;;30.13;16.60;;;;;;;;;;3619657;32;20094;-79
2020/12/01 07:12:07;;;;;;;29.52;16.23;;;;;;;;;;3616673;39;20563;-81
2020/12/01 07:14:44;;;;;;;30.48;16.30;;;;;;;;;;3615954;39;20179;-81
2020/12/01 07:17:18;;;;;;;30.20;16.02;;;;;;;;;;3623292;32;20086;-81
2020/12/01 07:20:10;;;;;;;30.70;16.20;;;;;;;;;;3623048;32;20206;-81
2020/12/01 07:23:07;;;;;;;30.20;15.75;;;;;;;;;;3624481;39;20082;-81
2020/12/01 07:28:47;;;;;;;28.95;15.73;;;;;;;;;;3601915;39;20130;-81
2020/12/01 07:34:46;;;;;;;31.75;16.85;;;;;;;;;;3611195;39;20497;-80
2020/12/01 07:37:21;;;;;;;33.08;17.33;;;;;;;;;;3611679;32;20277;-80
2020/12/01 07:40:01;;;;;;;29.77;16.27;;;;;;;;;;3617181;39;20129;-80
2020/12/01 07:42:44;;;;;;;32.55;16.60;;;;;;;;;;3588668;39;20126;-79
2020/12/01 07:47:59;;;;;;;29.10;16.08;;;;;;;;;;3591177;40;20107;-76
2020/12/01 07:50:27;;;;;;;;;;;;;;;;;;3589041;40;20096;-78
2020/12/01 07:53:05;;;;;;;29.85;15.40;;;;;;;;;;3587183;32;20481;-77
2020/12/01 07:55:40;;;;;;;25.50;14.05;;;;;;;;;;3583030;32;20655;-77
2020/12/01 07:58:18;;;;;;;30.20;15.60;;;;;;;;;;3573875;32;20561;-77
2020/12/01 08:00:56;;;;;;;28.52;15.38;;;;;;;;;;3577843;40;20115;-78
2020/12/01 08:03:24;;;;;;;26.48;14.82;;;;;;;;;;3560786;40;20152;-76
2020/12/01 08:06:17;;;;;;;22.20;12.25;;;;;;;;;;3571539;32;20227;-77
2020/12/01 08:08:46;;;;;;;31.08;15.25;;;;;;;;;;3572170;32;20107;-78
2020/12/01 08:11:17;;;;;;;39.38;15.20;;;;;;;;;;3567146;32;20137;-77
2020/12/01 08:13:44;;;;;;;29.60;15.73;;;;;;;;;;3565682;40;20111;-77
2020/12/01 08:16:19;;;;;;;29.67;15.52;;;;;;;;;;3600351;40;20696;-77
2020/12/01 08:18:49;;;;;;;28.00;15.23;;;;;;;;;;3595578;32;20114;-77
2020/12/01 08:21:20;;;;;;;27.77;14.27;;;;;;;;;;3593680;32;20114;-77
2020/12/01 08:23:48;;;;;;;33.78;15.52;;;;;;;;;;3592644;40;20570;-76
2020/12/01 08:26:19;;;;;;;31.00;15.43;;;;;;;;;;3583065;40;20079;-77
2020/12/01 08:28:47;;;;;;;29.90;15.20;;;;;;;;;;3602672;32;20613;-77
2020/12/01 08:31:22;;;;;;;30.27;14.85;;;;;;;;;;3594073;32;20165;-77
2020/12/01 08:34:06;;;;;;;30.77;15.65;;;;;;;;;;3584802;32;20118;-78
2020/12/01 08:36:38;;;;;;;29.38;14.98;;;;;;;;;;3586047;40;20131;-77
2020/12/01 08:39:05;;;;;;;30.17;15.98;;;;;;;;;;3557948;40;20128;-77
2020/12/01 08:41:39;;;;;;;29.55;14.98;;;;;;;;;;3557455;40;20113;-77
2020/12/01 08:44:12;;;;;;;27.42;14.27;;;;;;;;;;3559724;32;20128;-77
2020/12/01 08:46:41;;;;;;;25.70;13.60;;;;;;;;;;3558265;40;20194;-75
2020/12/01 08:52:02;;;;;;;30.05;15.18;;;;;;;;;;3584486;32;20595;-76
2020/12/01 08:54:28;;;;;;;28.15;14.23;;;;;;;;;;3584676;40;20119;-81
2020/12/01 08:57:04;;;;;;;26.00;14.07;;;;;;;;;;3600705;32;20430;-76
2020/12/01 08:59:35;;;;;;;26.58;13.82;;;;;;;;;;3564147;40;20165;-77
2020/12/01 09:02:04;;;;;;;25.73;12.73;;;;;;;;;;3581129;32;20123;-78
2020/12/01 09:04:31;;;;;;;26.15;13.68;;;;;;;;;;3581627;40;20115;-77
2020/12/01 09:07:27;;;;;;;24.42;13.55;;;;;;;;;;3585013;32;20126;-79
2020/12/01 09:10:08;;;;;;;25.75;13.52;;;;;;;;;;3539934;33;20692;-77
2020/12/01 09:12:42;;;;;;;24.92;13.25;;;;;;;;;;3591769;32;20126;-78
2020/12/01 09:15:26;;;;;;;25.70;13.50;;;;;;;;;;3584632;32;20094;-77
2020/12/01 09:23:32;;;;;;;24.88;13.07;;;;;;;;;;3586267;32;20107;-78
2020/12/01 09:26:00;;;;;;;25.30;13.52;;;;;;;;;;3559826;40;20108;-77
2020/12/01 09:28:33;;;;;;;26.33;14.05;;;;;;;;;;3565093;32;20562;-78
2020/12/01 09:31:01;;;;;;;26.98;13.23;;;;;;;;;;3565179;32;20131;-79
2020/12/01 09:33:28;;;;;;;23.95;12.77;;;;;;;;;;3561099;32;20112;-78
2020/12/01 09:35:54;;;;;;;24.67;14.30;;;;;;;;;;3567353;32;20148;-77
2020/12/01 09:38:20;;;;;;;25.45;14.07;;;;;;;;;;3553545;32;20115;-78
2020/12/01 09:40:49;;;;;;;26.50;13.98;;;;;;;;;;3564659;32;20111;-76
2020/12/01 09:45:56;;;;;;;28.30;14.43;;;;;;;;;;3568056;32;20204;-78
2020/12/01 09:48:31;;;;;;;28.52;15.20;;;;;;;;;;3583738;40;20124;-78
2020/12/01 09:50:57;;;;;;;22.38;11.93;;;;;;;;;;3591226;32;20179;-76
2020/12/01 10:17:10;;;;;;;24.88;14.10;;;;;;;;;;3586505;40;20150;-79
2020/12/01 10:35:33;;;;;;;21.73;11.88;;;;;;;;;;3570338;32;20580;-78
2020/12/01 10:37:59;;;;;;;20.30;11.32;;;;;;;;;;3586258;32;20098;-79
2020/12/01 10:40:27;;;;;;;21.88;11.82;;;;;;;;;;3594625;40;20126;-79
2020/12/01 10:42:57;;;;;;;18.00;10.45;;;;;;;;;;3591958;40;20126;-79
2020/12/01 10:45:24;;;;;;;20.90;11.52;;;;;;;;;;3588674;32;20528;-79
2020/12/01 10:47:50;;;;;;;22.55;11.43;;;;;;;;;;3591012;32;20169;-79
2020/12/01 10:50:19;;;;;;;19.40;11.10;;;;;;;;;;3583336;32;20111;-77
2020/12/01 10:52:45;;;;;;;19.77;11.20;;;;;;;;;;3592662;40;20118;-78
2020/12/01 10:55:22;;;;;;;22.92;11.10;;;;;;;;;;3592898;40;20115;-79
2020/12/01 10:57:52;;;;;;;19.35;10.88;;;;;;;;;;3588149;40;20197;-78
2020/12/01 11:00:20;;;;;;;18.63;10.35;;;;;;;;;;3585974;32;20238;-78
2020/12/01 11:02:47;;;;;;;19.70;11.07;;;;;;;;;;3589779;32;20127;-81
2020/12/01 11:05:16;;;;;;;18.98;10.98;;;;;;;;;;3592332;40;20126;-79
2020/12/01 11:07:42;;;;;;;21.65;11.60;;;;;;;;;;3589836;40;20123;-78
2020/12/01 11:10:08;;;;;;;23.02;11.77;;;;;;;;;;3593139;32;20119;-78
2020/12/01 11:12:35;;;;;;;22.05;12.00;;;;;;;;;;3590732;32;20107;-80
2020/12/01 11:15:02;;;;;;;25.42;12.40;;;;;;;;;;3576570;40;20108;-78
2020/12/01 11:17:28;;;;;;;21.88;11.75;;;;;;;;;;3584587;32;20436;-80
2020/12/01 11:19:54;;;;;;;22.63;11.57;;;;;;;;;;3590593;40;20127;-79
2020/12/01 11:22:21;;;;;;;18.40;10.15;;;;;;;;;;3591995;32;20130;-79
2020/12/01 11:24:47;;;;;;;20.15;10.48;;;;;;;;;;3556327;40;20115;-80
2020/12/01 11:27:14;;;;;;;19.08;10.65;;;;;;;;;;3560454;32;20136;-79
2020/12/01 11:29:40;;;;;;;17.85;10.45;;;;;;;;;;3561106;32;20207;-79
2020/12/01 11:32:06;;;;;;;20.75;11.18;;;;;;;;;;3564080;32;20119;-77
2020/12/01 11:34:33;;;;;;;19.85;10.93;;;;;;;;;;3553007;40;20104;-78
2020/12/01 11:36:59;;;;;;;19.17;11.05;;;;;;;;;;3559841;32;20131;-80
2020/12/01 11:39:26;;;;;;;18.85;10.93;;;;;;;;;;3556933;32;20131;-79
2020/12/01 11:41:52;;;;;;;19.20;11.45;;;;;;;;;;3564333;32;20701;-78
2020/12/01 11:44:19;;;;;;;23.42;10.63;;;;;;;;;;3563808;32;20124;-81
2020/12/01 11:46:46;;;;;;;19.67;11.05;;;;;;;;;;3559968;40;20174;-80
2020/12/01 11:49:12;;;;;;;18.75;10.60;;;;;;;;;;3560881;40;20135;-81
2020/12/01 11:51:39;;;;;;;19.38;11.00;;;;;;;;;;3581923;40;20122;-77
2020/12/01 11:54:07;;;;;;;21.05;10.68;;;;;;;;;;3578669;32;20115;-78
2020/12/01 11:56:33;;;;;;;19.13;10.38;;;;;;;;;;3593401;32;20143;-78
2020/12/01 11:58:59;;;;;;;20.00;10.77;;;;;;;;;;3594059;32;20126;-77
2020/12/01 12:01:28;;;;;;;19.15;11.23;;;;;;;;;;3588366;40;20122;-77
2020/12/01 12:03:55;;;;;;;21.50;10.52;;;;;;;;;;3593511;32;20114;-78
2020/12/01 12:06:22;;;;;;;18.80;10.85;;;;;;;;;;3581202;40;20114;-77
2020/12/01 12:08:48;;;;;;;20.10;11.10;;;;;;;;;;3580734;40;20095;-79
2020/12/01 12:11:14;;;;;;;20.10;11.00;;;;;;;;;;3586441;40;20128;-79
2020/12/01 12:13:40;;;;;;;18.92;11.13;;;;;;;;;;3576224;32;20119;-80
2020/12/01 12:16:12;;;;;;;20.70;10.73;;;;;;;;;;3576335;32;20573;-78
2020/12/01 12:18:40;;;;;;;21.15;11.05;;;;;;;;;;3556656;40;20155;-78
2020/12/01 12:21:06;;;;;;;17.95;10.55;;;;;;;;;;3567320;32;20119;-78
2020/12/01 12:23:34;;;;;;;21.42;11.68;;;;;;;;;;3586717;32;20365;-79
2020/12/01 12:26:02;;;;;;;22.90;12.43;;;;;;;;;;3581504;32;20119;-79
2020/12/01 12:28:29;;;;;;;21.65;11.75;;;;;;;;;;3576855;32;20127;-77
2020/12/01 12:30:55;;;;;;;21.90;11.80;;;;;;;;;;3561703;32;20150;-77
2020/12/01 12:33:22;;;;;;;26.40;12.40;;;;;;;;;;3574657;32;20124;-76
2020/12/01 12:35:51;;;;;;;22.30;12.10;;;;;;;;;;3562318;40;20155;-78
2020/12/01 12:38:19;;;;;;;19.80;11.05;;;;;;;;;;3569682;32;20134;-79
2020/12/01 12:40:47;;;;;;;22.15;12.23;;;;;;;;;;3559952;32;20127;-78
2020/12/01 12:43:20;;;;;;;22.23;11.93;;;;;;;;;;3583261;32;20142;-79
2020/12/01 12:45:47;;;;;;;20.95;12.05;;;;;;;;;;3597365;32;20122;-77
2020/12/01 12:48:14;;;;;;;22.58;11.90;;;;;;;;;;3569381;32;20144;-78
2020/12/01 12:50:41;;;;;;;24.35;12.93;;;;;;;;;;3586189;40;20087;-77
2020/12/01 12:53:07;;;;;;;22.63;12.50;;;;;;;;;;3589499;32;20563;-78
2020/12/01 12:55:34;;;;;;;23.33;12.00;;;;;;;;;;3586984;32;20608;-79
2020/12/01 12:58:00;;;;;;;22.27;12.68;;;;;;;;;;3573344;40;20510;-78
2020/12/01 13:00:29;;;;;;;24.52;12.80;;;;;;;;;;3580532;32;20130;-78
2020/12/01 13:02:56;;;;;;;22.15;12.57;;;;;;;;;;3565832;40;20115;-79
2020/12/01 13:05:23;;;;;;;24.63;12.15;;;;;;;;;;3571076;32;20444;-79
2020/12/01 13:07:53;;;;;;;29.05;13.95;;;;;;;;;;3567239;40;20104;-77
2020/12/01 13:10:19;;;;;;;24.50;12.35;;;;;;;;;;3586614;32;20130;-78
2020/12/01 13:12:45;;;;;;;25.23;12.45;;;;;;;;;;3576573;40;20311;-79
2020/12/01 13:15:11;;;;;;;24.45;12.60;;;;;;;;;;3581026;40;20130;-78
2020/12/01 13:17:40;;;;;;;25.38;13.20;;;;;;;;;;3590253;32;20095;-77
2020/12/01 13:20:13;;;;;;;30.77;15.55;;;;;;;;;;3585584;40;20115;-78
2020/12/01 13:22:39;;;;;;;29.67;15.65;;;;;;;;;;3563966;40;20116;-77
2020/12/01 13:25:06;;;;;;;40.30;18.23;;;;;;;;;;3592165;32;20115;-76
2020/12/01 13:27:33;;;;;;;33.05;17.20;;;;;;;;;;3583356;32;20950;-78
2020/12/01 13:30:00;;;;;;;31.30;17.58;;;;;;;;;;3593562;40;20110;-78
2020/12/01 13:32:27;;;;;;;26.48;14.88;;;;;;;;;;3585450;32;20123;-77
2020/12/01 13:34:53;;;;;;;25.52;13.90;;;;;;;;;;3593688;32;20139;-77
2020/12/01 13:37:20;;;;;;;27.13;13.57;;;;;;;;;;3578807;32;20454;-78
2020/12/01 13:39:47;;;;;;;23.52;13.02;;;;;;;;;;3587263;32;20123;-77
2020/12/01 13:42:13;;;;;;;24.48;13.90;;;;;;;;;;3586221;32;20145;-78
2020/12/01 13:44:40;;;;;;;27.05;14.02;;;;;;;;;;3595292;32;20575;-80
2020/12/01 13:47:23;;;;;;;26.75;13.65;;;;;;;;;;3616771;32;20141;-79
2020/12/01 13:50:24;;;;;;;;;;;;;;;;;;;;;
2020/12/01 13:53:27;;;;;;;24.48;12.98;;;;;;;;;;3624446;39;20129;-80
2020/12/01 13:56:17;;;;;;;24.65;13.63;;;;;;;;;;3624156;32;20118;-81
2020/12/01 13:59:06;;;;;;;29.45;14.27;;;;;;;;;;3616901;32;20171;-80
2020/12/01 14:01:36;;;;;;;25.05;13.35;;;;;;;;;;3617840;32;20090;-80
2020/12/01 14:04:11;;;;;;;28.27;14.80;;;;;;;;;;3612817;32;20113;-81
2020/12/01 14:06:41;;;;;;;31.08;14.55;;;;;;;;;;3620139;32;20121;-79
2020/12/01 14:09:10;;;;;;;25.05;13.82;;;;;;;;;;3612996;39;20104;-78
2020/12/01 14:11:37;;;;;;;27.92;14.75;;;;;;;;;;3618879;32;20459;-79
2020/12/01 14:14:06;;;;;;;36.92;18.23;;;;;;;;;;3617761;32;20117;-79
2020/12/01 14:16:58;;;;;;;;;;;;;;;;;;;;;
2020/12/01 14:20:18;;;;;;;40.42;19.42;;;;;;;;;;3593809;39;20126;-79
2020/12/01 14:23:21;;;;;;;39.33;20.38;;;;;;;;;;3601457;39;20106;-79
2020/12/01 14:26:48;;;;;;;41.20;20.52;;;;;;;;;;3592253;39;20109;-79
2020/12/01 14:29:57;;;;;;;40.05;19.23;;;;;;;;;;3612607;39;20168;-79
2020/12/01 14:36:16;;;;;;;39.47;20.80;;;;;;;;;;3604532;39;20203;-78
2020/12/01 14:38:51;;;;;;;45.65;21.23;;;;;;;;;;3595586;32;20101;-81
2020/12/01 14:41:22;;;;;;;40.85;20.77;;;;;;;;;;3602905;39;20638;-78
2020/12/01 14:44:19;;;;;;;40.45;19.80;;;;;;;;;;3616091;32;20121;-81
2020/12/01 14:47:06;;;;;;;39.60;20.58;;;;;;;;;;3606774;32;20106;-79
2020/12/01 14:50:10;;;;;;;40.38;20.67;;;;;;;;;;3610138;39;20129;-80
2020/12/01 14:52:42;;;;;;;46.60;21.98;;;;;;;;;;3604289;32;20180;-78
2020/12/01 14:55:17;;;;;;;46.10;21.55;;;;;;;;;;3612333;39;20513;-80
2020/12/01 14:58:16;;;;;;;43.85;21.45;;;;;;;;;;3613547;32;20155;-77
2020/12/01 15:00:46;;;;;;;47.00;22.42;;;;;;;;;;3609095;39;20133;-79
2020/12/01 15:03:26;;;;;;;41.47;21.25;;;;;;;;;;3613000;32;20182;-80
2020/12/01 15:05:57;;;;;;;41.67;21.15;;;;;;;;;;3616267;39;20117;-79
2020/12/01 15:08:43;;;;;;;45.85;22.00;;;;;;;;;;3609593;32;20126;-80
2020/12/01 15:11:27;;;;;;;45.60;21.88;;;;;;;;;;3600156;39;20161;-79
2020/12/01 15:13:54;;;;;;;47.95;23.20;;;;;;;;;;3606031;32;20281;-78
2020/12/01 15:16:25;;;;;;;40.20;20.02;;;;;;;;;;3596302;39;20126;-78
2020/12/01 15:18:53;;;;;;;45.00;22.23;;;;;;;;;;3618897;39;20594;-78
2020/12/01 15:21:25;;;;;;;47.47;23.55;;;;;;;;;;3606214;39;20146;-78
2020/12/01 15:23:57;;;;;;;48.00;22.63;;;;;;;;;;3614607;32;20113;-80
2020/12/01 15:26:27;;;;;;;44.33;21.98;;;;;;;;;;3617692;32;20125;-78
2020/12/01 15:28:54;;;;;;;45.05;22.17;;;;;;;;;;3610426;32;20130;-79
2020/12/01 15:31:21;;;;;;;47.55;22.10;;;;;;;;;;3604820;32;20110;-80
2020/12/01 15:33:49;;;;;;;46.40;22.77;;;;;;;;;;3601253;39;20178;-78
2020/12/01 15:36:29;;;;;;;49.33;23.70;;;;;;;;;;3610168;39;20118;-79
2020/12/01 15:38:56;;;;;;;47.40;22.15;;;;;;;;;;3625778;31;20162;-79
2020/12/01 15:41:26;;;;;;;47.15;22.85;;;;;;;;;;3608476;32;20117;-79
2020/12/01 15:43:53;;;;;;;48.00;22.20;;;;;;;;;;3597555;39;20169;-79
2020/12/01 15:46:22;;;;;;;43.00;21.08;;;;;;;;;;3606233;39;20114;-79
2020/12/01 15:48:49;;;;;;;46.50;22.17;;;;;;;;;;3608291;32;20704;-78
2020/12/01 15:51:30;;;;;;;49.35;22.95;;;;;;;;;;3616474;31;20611;-80
2020/12/01 15:54:01;;;;;;;49.67;24.67;;;;;;;;;;3605944;32;20098;-79
2020/12/01 15:56:53;;;;;;;47.72;23.42;;;;;;;;;;3611447;32;20138;-80
2020/12/01 15:59:21;;;;;;;48.30;22.05;;;;;;;;;;3608037;32;20592;-79
2020/12/01 16:02:07;;;;;;;47.92;23.13;;;;;;;;;;3615332;32;20118;-79
2020/12/01 16:04:50;;;;;;;49.03;23.40;;;;;;;;;;3620914;32;20134;-78